sensor_id;sensor_type;location;lat;lon;timestamp;P1;durP1;ratioP1;P2;durP2;ratioP2
17806;SDS011;9027;48.938;9.182;2022-12-29T00:00:20;3.43;;;1.70;;
17806;SDS011;9027;48.938;9.182;2022-12-29T00:01:52;1.88;;;1.50;;
17806;SDS011;9027;48.938;9.182;2022-12-29T00:03:23;2.23;;;1.50;;
17806;SDS011;9027;48.938;9.182;2022-12-29T00:04:54;2.33;;;1.73;;
17806;SDS011;9027;48.938;9.182;2022-12-29T00:06:26;2.10;;;1.40;;
17806;SDS011;9027;48.938;9.182;2022-12-29T00:07:57;3.92;;;1.52;;
17806;SDS011;9027;48.938;9.182;2022-12-29T00:09:31;5.30;;;1.85;;
17806;SDS011;9027;48.938;9.182;2022-12-29T00:11:02;2.83;;;1.50;;
17806;SDS011;9027;48.938;9.182;2022-12-29T00:12:34;2.50;;;1.60;;
17806;SDS011;9027;48.938;9.182;2022-12-29T00:14:23;3.70;;;1.50;;
17806;SDS011;9027;48.938;9.182;2022-12-29T00:16:13;3.45;;;1.63;;
17806;SDS011;9027;48.938;9.182;2022-12-29T00:17:45;2.00;;;1.67;;
17806;SDS011;9027;48.938;9.182;2022-12-29T00:19:16;2.78;;;1.20;;
17806;SDS011;9027;48.938;9.182;2022-12-29T00:21:07;3.67;;;1.40;;
17806;SDS011;9027;48.938;9.182;2022-12-29T00:22:57;3.43;;;1.50;;
17806;SDS011;9027;48.938;9.182;2022-12-29T00:24:48;1.37;;;1.20;;
17806;SDS011;9027;48.938;9.182;2022-12-29T00:26:37;2.20;;;1.60;;
17806;SDS011;9027;48.938;9.182;2022-12-29T00:28:27;2.63;;;1.33;;
17806;SDS011;9027;48.938;9.182;2022-12-29T00:30:17;2.15;;;1.40;;
17806;SDS011;9027;48.938;9.182;2022-12-29T00:32:09;2.20;;;1.40;;
17806;SDS011;9027;48.938;9.182;2022-12-29T00:33:58;1.83;;;1.60;;
17806;SDS011;9027;48.938;9.182;2022-12-29T00:35:50;1.85;;;1.20;;
17806;SDS011;9027;48.938;9.182;2022-12-29T00:37:25;3.10;;;1.40;;
17806;SDS011;9027;48.938;9.182;2022-12-29T00:39:11;2.37;;;1.30;;
17806;SDS011;9027;48.938;9.182;2022-12-29T00:41:04;3.40;;;1.40;;
17806;SDS011;9027;48.938;9.182;2022-12-29T00:42:53;2.95;;;1.60;;
17806;SDS011;9027;48.938;9.182;2022-12-29T00:44:42;3.17;;;1.17;;
17806;SDS011;9027;48.938;9.182;2022-12-29T00:46:14;3.20;;;1.25;;
17806;SDS011;9027;48.938;9.182;2022-12-29T00:47:44;2.83;;;1.52;;
17806;SDS011;9027;48.938;9.182;2022-12-29T00:49:16;2.30;;;1.40;;
17806;SDS011;9027;48.938;9.182;2022-12-29T00:51:02;2.93;;;1.30;;
17806;SDS011;9027;48.938;9.182;2022-12-29T00:52:34;1.92;;;1.30;;
17806;SDS011;9027;48.938;9.182;2022-12-29T00:54:05;2.47;;;1.30;;
17806;SDS011;9027;48.938;9.182;2022-12-29T00:55:36;2.47;;;1.50;;
17806;SDS011;9027;48.938;9.182;2022-12-29T00:57:10;3.03;;;1.30;;
17806;SDS011;9027;48.938;9.182;2022-12-29T00:58:43;2.63;;;1.50;;
17806;SDS011;9027;48.938;9.182;2022-12-29T01:00:15;4.65;;;1.58;;
17806;SDS011;9027;48.938;9.182;2022-12-29T01:01:47;2.17;;;1.50;;
17806;SDS011;9027;48.938;9.182;2022-12-29T01:03:19;2.90;;;1.33;;
17806;SDS011;9027;48.938;9.182;2022-12-29T01:04:51;2.35;;;1.30;;
17806;SDS011;9027;48.938;9.182;2022-12-29T01:06:23;2.23;;;1.50;;
17806;SDS011;9027;48.938;9.182;2022-12-29T01:07:54;3.17;;;1.60;;
17806;SDS011;9027;48.938;9.182;2022-12-29T01:09:26;2.40;;;1.53;;
17806;SDS011;9027;48.938;9.182;2022-12-29T01:11:15;1.80;;;1.38;;
17806;SDS011;9027;48.938;9.182;2022-12-29T01:12:48;1.83;;;1.20;;
17806;SDS011;9027;48.938;9.182;2022-12-29T01:14:21;3.33;;;1.27;;
17806;SDS011;9027;48.938;9.182;2022-12-29T01:15:53;1.47;;;1.00;;
17806;SDS011;9027;48.938;9.182;2022-12-29T01:17:26;3.23;;;1.20;;
17806;SDS011;9027;48.938;9.182;2022-12-29T01:18:59;2.60;;;1.20;;
17806;SDS011;9027;48.938;9.182;2022-12-29T01:20:31;3.10;;;1.40;;
17806;SDS011;9027;48.938;9.182;2022-12-29T01:22:03;4.10;;;1.40;;
17806;SDS011;9027;48.938;9.182;2022-12-29T01:23:35;1.77;;;1.17;;
17806;SDS011;9027;48.938;9.182;2022-12-29T01:25:06;2.20;;;1.50;;
17806;SDS011;9027;48.938;9.182;2022-12-29T01:26:38;3.35;;;1.70;;
17806;SDS011;9027;48.938;9.182;2022-12-29T01:28:12;1.40;;;1.20;;
17806;SDS011;9027;48.938;9.182;2022-12-29T01:29:44;4.78;;;1.30;;
17806;SDS011;9027;48.938;9.182;2022-12-29T01:31:16;3.25;;;1.35;;
17806;SDS011;9027;48.938;9.182;2022-12-29T01:32:47;5.43;;;1.50;;
17806;SDS011;9027;48.938;9.182;2022-12-29T01:34:19;4.35;;;1.25;;
17806;SDS011;9027;48.938;9.182;2022-12-29T01:35:50;1.60;;;1.20;;
17806;SDS011;9027;48.938;9.182;2022-12-29T01:37:22;2.35;;;1.30;;
17806;SDS011;9027;48.938;9.182;2022-12-29T01:38:54;2.33;;;1.08;;
17806;SDS011;9027;48.938;9.182;2022-12-29T01:40:25;2.25;;;1.30;;
17806;SDS011;9027;48.938;9.182;2022-12-29T01:41:57;3.78;;;1.38;;
17806;SDS011;9027;48.938;9.182;2022-12-29T01:43:40;2.40;;;1.38;;
17806;SDS011;9027;48.938;9.182;2022-12-29T01:45:13;1.40;;;1.30;;
17806;SDS011;9027;48.938;9.182;2022-12-29T01:46:45;4.13;;;1.70;;
17806;SDS011;9027;48.938;9.182;2022-12-29T01:48:21;4.30;;;1.73;;
17806;SDS011;9027;48.938;9.182;2022-12-29T01:49:52;3.13;;;1.63;;
17806;SDS011;9027;48.938;9.182;2022-12-29T01:51:27;2.65;;;1.58;;
17806;SDS011;9027;48.938;9.182;2022-12-29T01:53:03;3.42;;;1.80;;
17806;SDS011;9027;48.938;9.182;2022-12-29T01:54:39;7.05;;;3.72;;
17806;SDS011;9027;48.938;9.182;2022-12-29T01:56:15;11.38;;;5.72;;
17806;SDS011;9027;48.938;9.182;2022-12-29T01:57:50;7.57;;;3.88;;
17806;SDS011;9027;48.938;9.182;2022-12-29T01:59:26;6.65;;;2.88;;
17806;SDS011;9027;48.938;9.182;2022-12-29T02:01:02;2.97;;;1.67;;
17806;SDS011;9027;48.938;9.182;2022-12-29T02:02:34;2.65;;;2.00;;
17806;SDS011;9027;48.938;9.182;2022-12-29T02:04:06;2.58;;;1.48;;
17806;SDS011;9027;48.938;9.182;2022-12-29T02:05:40;6.35;;;1.67;;
17806;SDS011;9027;48.938;9.182;2022-12-29T02:07:18;2.10;;;1.47;;
17806;SDS011;9027;48.938;9.182;2022-12-29T02:08:52;4.80;;;1.40;;
17806;SDS011;9027;48.938;9.182;2022-12-29T02:10:27;4.23;;;1.43;;
17806;SDS011;9027;48.938;9.182;2022-12-29T02:12:02;2.53;;;1.23;;
17806;SDS011;9027;48.938;9.182;2022-12-29T02:13:34;1.38;;;1.10;;
17806;SDS011;9027;48.938;9.182;2022-12-29T02:15:07;2.33;;;1.42;;
17806;SDS011;9027;48.938;9.182;2022-12-29T02:16:46;1.50;;;1.13;;
17806;SDS011;9027;48.938;9.182;2022-12-29T02:18:32;2.15;;;1.42;;
17806;SDS011;9027;48.938;9.182;2022-12-29T02:20:25;2.20;;;1.30;;
17806;SDS011;9027;48.938;9.182;2022-12-29T02:22:11;1.92;;;1.10;;
17806;SDS011;9027;48.938;9.182;2022-12-29T02:24:03;2.42;;;1.30;;
17806;SDS011;9027;48.938;9.182;2022-12-29T02:26:06;3.37;;;1.33;;
17806;SDS011;9027;48.938;9.182;2022-12-29T02:30:07;2.65;;;1.02;;
17806;SDS011;9027;48.938;9.182;2022-12-29T02:31:48;4.20;;;1.30;;
17806;SDS011;9027;48.938;9.182;2022-12-29T02:33:29;2.13;;;1.30;;
17806;SDS011;9027;48.938;9.182;2022-12-29T02:35:09;3.28;;;1.67;;
17806;SDS011;9027;48.938;9.182;2022-12-29T02:36:52;3.80;;;1.52;;
17806;SDS011;9027;48.938;9.182;2022-12-29T02:38:34;2.90;;;1.48;;
17806;SDS011;9027;48.938;9.182;2022-12-29T02:40:20;3.78;;;1.67;;
17806;SDS011;9027;48.938;9.182;2022-12-29T02:41:57;3.40;;;1.50;;
17806;SDS011;9027;48.938;9.182;2022-12-29T02:43:37;1.70;;;1.20;;
17806;SDS011;9027;48.938;9.182;2022-12-29T02:45:18;2.92;;;1.73;;
17806;SDS011;9027;48.938;9.182;2022-12-29T02:46:58;3.53;;;1.63;;
17806;SDS011;9027;48.938;9.182;2022-12-29T02:48:37;2.08;;;1.40;;
17806;SDS011;9027;48.938;9.182;2022-12-29T02:50:14;3.05;;;1.27;;
17806;SDS011;9027;48.938;9.182;2022-12-29T02:51:50;2.70;;;1.10;;
17806;SDS011;9027;48.938;9.182;2022-12-29T02:53:27;5.10;;;1.50;;
17806;SDS011;9027;48.938;9.182;2022-12-29T02:55:18;1.40;;;1.10;;
17806;SDS011;9027;48.938;9.182;2022-12-29T02:56:52;2.28;;;1.40;;
17806;SDS011;9027;48.938;9.182;2022-12-29T02:58:23;1.43;;;1.07;;
17806;SDS011;9027;48.938;9.182;2022-12-29T02:59:56;1.92;;;1.17;;
17806;SDS011;9027;48.938;9.182;2022-12-29T03:01:34;3.10;;;1.20;;
17806;SDS011;9027;48.938;9.182;2022-12-29T03:03:40;2.40;;;1.10;;
17806;SDS011;9027;48.938;9.182;2022-12-29T03:05:22;4.55;;;1.35;;
17806;SDS011;9027;48.938;9.182;2022-12-29T03:07:17;3.00;;;1.40;;
17806;SDS011;9027;48.938;9.182;2022-12-29T03:08:57;2.83;;;1.50;;
17806;SDS011;9027;48.938;9.182;2022-12-29T03:10:38;2.63;;;1.30;;
17806;SDS011;9027;48.938;9.182;2022-12-29T03:12:20;2.30;;;1.40;;
17806;SDS011;9027;48.938;9.182;2022-12-29T03:14:16;2.30;;;1.42;;
17806;SDS011;9027;48.938;9.182;2022-12-29T03:16:14;1.85;;;1.15;;
17806;SDS011;9027;48.938;9.182;2022-12-29T03:17:54;2.08;;;1.42;;
17806;SDS011;9027;48.938;9.182;2022-12-29T03:19:32;1.30;;;1.08;;
17806;SDS011;9027;48.938;9.182;2022-12-29T03:21:08;1.75;;;1.02;;
17806;SDS011;9027;48.938;9.182;2022-12-29T03:22:43;3.25;;;1.40;;
17806;SDS011;9027;48.938;9.182;2022-12-29T03:24:22;3.17;;;1.40;;
17806;SDS011;9027;48.938;9.182;2022-12-29T03:25:56;1.63;;;1.08;;
17806;SDS011;9027;48.938;9.182;2022-12-29T03:27:31;3.70;;;1.40;;
17806;SDS011;9027;48.938;9.182;2022-12-29T03:29:06;3.67;;;1.50;;
17806;SDS011;9027;48.938;9.182;2022-12-29T03:30:39;3.05;;;1.17;;
17806;SDS011;9027;48.938;9.182;2022-12-29T03:32:13;2.50;;;1.60;;
17806;SDS011;9027;48.938;9.182;2022-12-29T03:33:45;2.30;;;1.30;;
17806;SDS011;9027;48.938;9.182;2022-12-29T03:35:20;3.60;;;1.45;;
17806;SDS011;9027;48.938;9.182;2022-12-29T03:36:54;2.15;;;1.30;;
17806;SDS011;9027;48.938;9.182;2022-12-29T03:38:33;4.97;;;1.92;;
17806;SDS011;9027;48.938;9.182;2022-12-29T03:40:09;4.25;;;1.58;;
17806;SDS011;9027;48.938;9.182;2022-12-29T03:41:42;3.08;;;1.27;;
17806;SDS011;9027;48.938;9.182;2022-12-29T03:43:15;3.08;;;1.30;;
17806;SDS011;9027;48.938;9.182;2022-12-29T03:44:52;3.20;;;1.27;;
17806;SDS011;9027;48.938;9.182;2022-12-29T03:46:26;2.78;;;1.38;;
17806;SDS011;9027;48.938;9.182;2022-12-29T03:47:58;1.60;;;1.05;;
17806;SDS011;9027;48.938;9.182;2022-12-29T03:49:31;2.75;;;1.10;;
17806;SDS011;9027;48.938;9.182;2022-12-29T03:51:05;2.22;;;1.15;;
17806;SDS011;9027;48.938;9.182;2022-12-29T03:52:37;3.47;;;1.25;;
17806;SDS011;9027;48.938;9.182;2022-12-29T03:54:10;2.50;;;1.23;;
17806;SDS011;9027;48.938;9.182;2022-12-29T03:55:41;3.17;;;1.30;;
17806;SDS011;9027;48.938;9.182;2022-12-29T03:57:14;1.75;;;1.15;;
17806;SDS011;9027;48.938;9.182;2022-12-29T03:58:55;2.75;;;1.30;;
17806;SDS011;9027;48.938;9.182;2022-12-29T04:00:34;2.43;;;1.00;;
17806;SDS011;9027;48.938;9.182;2022-12-29T04:02:06;2.53;;;1.30;;
17806;SDS011;9027;48.938;9.182;2022-12-29T04:03:38;1.58;;;1.00;;
17806;SDS011;9027;48.938;9.182;2022-12-29T04:05:10;2.38;;;1.33;;
17806;SDS011;9027;48.938;9.182;2022-12-29T04:06:43;4.18;;;1.20;;
17806;SDS011;9027;48.938;9.182;2022-12-29T04:08:16;1.23;;;1.00;;
17806;SDS011;9027;48.938;9.182;2022-12-29T04:09:47;2.28;;;1.15;;
17806;SDS011;9027;48.938;9.182;2022-12-29T04:11:25;2.58;;;1.25;;
17806;SDS011;9027;48.938;9.182;2022-12-29T04:12:57;3.30;;;1.25;;
17806;SDS011;9027;48.938;9.182;2022-12-29T04:14:29;2.72;;;1.52;;
17806;SDS011;9027;48.938;9.182;2022-12-29T04:16:00;3.25;;;1.00;;
17806;SDS011;9027;48.938;9.182;2022-12-29T04:17:32;6.05;;;1.30;;
17806;SDS011;9027;48.938;9.182;2022-12-29T04:19:05;4.53;;;1.52;;
17806;SDS011;9027;48.938;9.182;2022-12-29T04:20:38;3.40;;;1.30;;
17806;SDS011;9027;48.938;9.182;2022-12-29T04:22:29;3.35;;;1.30;;
17806;SDS011;9027;48.938;9.182;2022-12-29T04:24:00;4.40;;;1.45;;
17806;SDS011;9027;48.938;9.182;2022-12-29T04:25:34;2.85;;;1.38;;
17806;SDS011;9027;48.938;9.182;2022-12-29T04:27:06;3.10;;;1.40;;
17806;SDS011;9027;48.938;9.182;2022-12-29T04:29:05;3.10;;;1.30;;
17806;SDS011;9027;48.938;9.182;2022-12-29T04:30:44;1.80;;;0.90;;
17806;SDS011;9027;48.938;9.182;2022-12-29T04:32:39;2.40;;;1.15;;
17806;SDS011;9027;48.938;9.182;2022-12-29T04:34:11;2.07;;;1.00;;
17806;SDS011;9027;48.938;9.182;2022-12-29T04:35:43;2.15;;;1.13;;
17806;SDS011;9027;48.938;9.182;2022-12-29T04:37:15;2.03;;;1.00;;
17806;SDS011;9027;48.938;9.182;2022-12-29T04:38:49;2.38;;;1.30;;
17806;SDS011;9027;48.938;9.182;2022-12-29T04:40:21;3.58;;;1.13;;
17806;SDS011;9027;48.938;9.182;2022-12-29T04:41:53;2.13;;;0.93;;
17806;SDS011;9027;48.938;9.182;2022-12-29T04:43:25;2.38;;;0.90;;
17806;SDS011;9027;48.938;9.182;2022-12-29T04:45:18;1.17;;;1.02;;
17806;SDS011;9027;48.938;9.182;2022-12-29T04:47:07;3.33;;;1.17;;
17806;SDS011;9027;48.938;9.182;2022-12-29T04:48:47;1.73;;;1.00;;
17806;SDS011;9027;48.938;9.182;2022-12-29T04:50:43;1.85;;;1.00;;
17806;SDS011;9027;48.938;9.182;2022-12-29T04:52:20;1.42;;;0.82;;
17806;SDS011;9027;48.938;9.182;2022-12-29T04:53:54;1.90;;;1.07;;
17806;SDS011;9027;48.938;9.182;2022-12-29T04:55:27;5.10;;;1.40;;
17806;SDS011;9027;48.938;9.182;2022-12-29T04:56:59;1.02;;;0.75;;
17806;SDS011;9027;48.938;9.182;2022-12-29T04:58:31;2.17;;;1.20;;
17806;SDS011;9027;48.938;9.182;2022-12-29T05:00:04;2.03;;;1.20;;
17806;SDS011;9027;48.938;9.182;2022-12-29T05:01:36;1.10;;;0.90;;
17806;SDS011;9027;48.938;9.182;2022-12-29T05:03:09;2.75;;;1.05;;
17806;SDS011;9027;48.938;9.182;2022-12-29T05:04:43;0.93;;;0.73;;
17806;SDS011;9027;48.938;9.182;2022-12-29T05:06:16;2.80;;;1.08;;
17806;SDS011;9027;48.938;9.182;2022-12-29T05:07:48;2.33;;;1.15;;
17806;SDS011;9027;48.938;9.182;2022-12-29T05:09:21;2.28;;;1.20;;
17806;SDS011;9027;48.938;9.182;2022-12-29T05:10:54;3.13;;;1.13;;
17806;SDS011;9027;48.938;9.182;2022-12-29T05:12:25;1.38;;;0.90;;
17806;SDS011;9027;48.938;9.182;2022-12-29T05:14:03;2.05;;;1.08;;
17806;SDS011;9027;48.938;9.182;2022-12-29T05:15:35;2.50;;;1.10;;
17806;SDS011;9027;48.938;9.182;2022-12-29T05:17:05;3.87;;;1.20;;
17806;SDS011;9027;48.938;9.182;2022-12-29T05:18:37;1.45;;;1.00;;
17806;SDS011;9027;48.938;9.182;2022-12-29T05:20:12;1.73;;;1.10;;
17806;SDS011;9027;48.938;9.182;2022-12-29T05:21:43;2.85;;;1.13;;
17806;SDS011;9027;48.938;9.182;2022-12-29T05:23:14;2.70;;;1.13;;
17806;SDS011;9027;48.938;9.182;2022-12-29T05:24:48;1.33;;;0.90;;
17806;SDS011;9027;48.938;9.182;2022-12-29T05:26:20;1.65;;;1.00;;
17806;SDS011;9027;48.938;9.182;2022-12-29T05:28:15;2.88;;;1.55;;
17806;SDS011;9027;48.938;9.182;2022-12-29T05:29:51;2.22;;;1.00;;
17806;SDS011;9027;48.938;9.182;2022-12-29T05:31:23;2.70;;;1.27;;
17806;SDS011;9027;48.938;9.182;2022-12-29T05:32:56;1.88;;;1.10;;
17806;SDS011;9027;48.938;9.182;2022-12-29T05:34:28;1.17;;;1.08;;
17806;SDS011;9027;48.938;9.182;2022-12-29T05:36:03;2.97;;;1.30;;
17806;SDS011;9027;48.938;9.182;2022-12-29T05:37:34;2.88;;;1.40;;
17806;SDS011;9027;48.938;9.182;2022-12-29T05:39:06;3.40;;;1.45;;
17806;SDS011;9027;48.938;9.182;2022-12-29T05:40:40;3.10;;;1.17;;
17806;SDS011;9027;48.938;9.182;2022-12-29T05:42:31;1.67;;;1.00;;
17806;SDS011;9027;48.938;9.182;2022-12-29T05:44:33;2.63;;;1.42;;
17806;SDS011;9027;48.938;9.182;2022-12-29T05:46:16;1.63;;;1.17;;
17806;SDS011;9027;48.938;9.182;2022-12-29T05:48:02;2.60;;;1.10;;
17806;SDS011;9027;48.938;9.182;2022-12-29T05:49:45;2.80;;;1.42;;
17806;SDS011;9027;48.938;9.182;2022-12-29T05:51:43;5.80;;;1.35;;
17806;SDS011;9027;48.938;9.182;2022-12-29T05:53:16;1.40;;;1.27;;
17806;SDS011;9027;48.938;9.182;2022-12-29T05:54:49;2.97;;;1.20;;
17806;SDS011;9027;48.938;9.182;2022-12-29T05:56:26;1.70;;;1.40;;
17806;SDS011;9027;48.938;9.182;2022-12-29T05:58:01;1.88;;;1.20;;
17806;SDS011;9027;48.938;9.182;2022-12-29T05:59:33;2.60;;;1.35;;
17806;SDS011;9027;48.938;9.182;2022-12-29T06:01:05;1.95;;;1.25;;
17806;SDS011;9027;48.938;9.182;2022-12-29T06:02:37;5.10;;;1.52;;
17806;SDS011;9027;48.938;9.182;2022-12-29T06:04:09;2.60;;;1.35;;
17806;SDS011;9027;48.938;9.182;2022-12-29T06:05:41;1.88;;;1.17;;
17806;SDS011;9027;48.938;9.182;2022-12-29T06:07:15;3.72;;;1.30;;
17806;SDS011;9027;48.938;9.182;2022-12-29T06:08:49;2.60;;;1.23;;
17806;SDS011;9027;48.938;9.182;2022-12-29T06:10:22;1.65;;;1.25;;
17806;SDS011;9027;48.938;9.182;2022-12-29T06:12:00;2.13;;;1.20;;
17806;SDS011;9027;48.938;9.182;2022-12-29T06:13:32;2.72;;;1.58;;
17806;SDS011;9027;48.938;9.182;2022-12-29T06:15:05;5.05;;;1.10;;
17806;SDS011;9027;48.938;9.182;2022-12-29T06:16:38;2.97;;;1.10;;
17806;SDS011;9027;48.938;9.182;2022-12-29T06:18:13;3.03;;;1.33;;
17806;SDS011;9027;48.938;9.182;2022-12-29T06:19:45;3.97;;;1.40;;
17806;SDS011;9027;48.938;9.182;2022-12-29T06:21:17;3.33;;;1.60;;
17806;SDS011;9027;48.938;9.182;2022-12-29T06:22:49;2.08;;;1.25;;
17806;SDS011;9027;48.938;9.182;2022-12-29T06:24:21;1.20;;;1.10;;
17806;SDS011;9027;48.938;9.182;2022-12-29T06:25:53;4.10;;;1.27;;
17806;SDS011;9027;48.938;9.182;2022-12-29T06:27:27;3.95;;;1.50;;
17806;SDS011;9027;48.938;9.182;2022-12-29T06:28:58;1.65;;;1.20;;
17806;SDS011;9027;48.938;9.182;2022-12-29T06:30:30;1.63;;;1.10;;
17806;SDS011;9027;48.938;9.182;2022-12-29T06:32:03;3.08;;;1.40;;
17806;SDS011;9027;48.938;9.182;2022-12-29T06:33:36;1.95;;;1.38;;
17806;SDS011;9027;48.938;9.182;2022-12-29T06:35:08;2.47;;;1.55;;
17806;SDS011;9027;48.938;9.182;2022-12-29T06:36:45;2.80;;;1.63;;
17806;SDS011;9027;48.938;9.182;2022-12-29T06:38:18;2.30;;;1.42;;
17806;SDS011;9027;48.938;9.182;2022-12-29T06:39:50;2.35;;;1.60;;
17806;SDS011;9027;48.938;9.182;2022-12-29T06:41:21;2.10;;;1.23;;
17806;SDS011;9027;48.938;9.182;2022-12-29T06:43:27;1.40;;;1.17;;
17806;SDS011;9027;48.938;9.182;2022-12-29T06:45:23;3.42;;;1.33;;
17806;SDS011;9027;48.938;9.182;2022-12-29T06:46:55;2.50;;;1.23;;
17806;SDS011;9027;48.938;9.182;2022-12-29T06:48:27;3.08;;;1.42;;
17806;SDS011;9027;48.938;9.182;2022-12-29T06:49:59;1.58;;;1.30;;
17806;SDS011;9027;48.938;9.182;2022-12-29T06:51:31;2.42;;;1.10;;
17806;SDS011;9027;48.938;9.182;2022-12-29T06:53:03;2.13;;;1.42;;
17806;SDS011;9027;48.938;9.182;2022-12-29T06:54:34;2.00;;;1.40;;
17806;SDS011;9027;48.938;9.182;2022-12-29T06:56:07;2.25;;;1.52;;
17806;SDS011;9027;48.938;9.182;2022-12-29T06:57:39;1.70;;;1.23;;
17806;SDS011;9027;48.938;9.182;2022-12-29T06:59:12;2.47;;;1.40;;
17806;SDS011;9027;48.938;9.182;2022-12-29T07:00:44;2.63;;;1.52;;
17806;SDS011;9027;48.938;9.182;2022-12-29T07:02:15;4.25;;;1.67;;
17806;SDS011;9027;48.938;9.182;2022-12-29T07:03:48;4.13;;;1.27;;
17806;SDS011;9027;48.938;9.182;2022-12-29T07:05:20;1.90;;;1.40;;
17806;SDS011;9027;48.938;9.182;2022-12-29T07:06:51;2.30;;;1.42;;
17806;SDS011;9027;48.938;9.182;2022-12-29T07:08:23;3.55;;;1.50;;
17806;SDS011;9027;48.938;9.182;2022-12-29T07:09:55;2.25;;;1.45;;
17806;SDS011;9027;48.938;9.182;2022-12-29T07:11:27;3.58;;;1.40;;
17806;SDS011;9027;48.938;9.182;2022-12-29T07:12:59;2.00;;;1.38;;
17806;SDS011;9027;48.938;9.182;2022-12-29T07:14:32;1.88;;;1.05;;
17806;SDS011;9027;48.938;9.182;2022-12-29T07:16:06;2.08;;;1.30;;
17806;SDS011;9027;48.938;9.182;2022-12-29T07:17:38;3.08;;;1.50;;
17806;SDS011;9027;48.938;9.182;2022-12-29T07:19:10;2.75;;;1.63;;
17806;SDS011;9027;48.938;9.182;2022-12-29T07:20:42;4.43;;;1.55;;
17806;SDS011;9027;48.938;9.182;2022-12-29T07:22:14;3.25;;;1.20;;
17806;SDS011;9027;48.938;9.182;2022-12-29T07:23:46;3.50;;;1.50;;
17806;SDS011;9027;48.938;9.182;2022-12-29T07:25:18;2.35;;;1.15;;
17806;SDS011;9027;48.938;9.182;2022-12-29T07:26:50;3.33;;;1.40;;
17806;SDS011;9027;48.938;9.182;2022-12-29T07:28:22;4.53;;;1.70;;
17806;SDS011;9027;48.938;9.182;2022-12-29T07:29:54;4.28;;;1.13;;
17806;SDS011;9027;48.938;9.182;2022-12-29T07:31:26;6.72;;;2.15;;
17806;SDS011;9027;48.938;9.182;2022-12-29T07:32:58;2.35;;;1.20;;
17806;SDS011;9027;48.938;9.182;2022-12-29T07:34:30;4.35;;;1.58;;
17806;SDS011;9027;48.938;9.182;2022-12-29T07:36:02;2.97;;;1.42;;
17806;SDS011;9027;48.938;9.182;2022-12-29T07:37:34;2.95;;;1.52;;
17806;SDS011;9027;48.938;9.182;2022-12-29T07:39:06;1.60;;;1.20;;
17806;SDS011;9027;48.938;9.182;2022-12-29T07:40:38;2.13;;;1.38;;
17806;SDS011;9027;48.938;9.182;2022-12-29T07:42:09;2.10;;;1.05;;
17806;SDS011;9027;48.938;9.182;2022-12-29T07:43:46;2.92;;;1.52;;
17806;SDS011;9027;48.938;9.182;2022-12-29T07:45:40;2.22;;;1.30;;
17806;SDS011;9027;48.938;9.182;2022-12-29T07:47:12;2.15;;;1.20;;
17806;SDS011;9027;48.938;9.182;2022-12-29T07:48:44;2.85;;;1.45;;
17806;SDS011;9027;48.938;9.182;2022-12-29T07:50:16;1.70;;;1.23;;
17806;SDS011;9027;48.938;9.182;2022-12-29T07:51:48;3.83;;;1.45;;
17806;SDS011;9027;48.938;9.182;2022-12-29T07:53:19;3.15;;;1.45;;
17806;SDS011;9027;48.938;9.182;2022-12-29T07:54:51;1.63;;;1.30;;
17806;SDS011;9027;48.938;9.182;2022-12-29T07:56:23;2.50;;;1.40;;
17806;SDS011;9027;48.938;9.182;2022-12-29T07:57:55;1.60;;;1.27;;
17806;SDS011;9027;48.938;9.182;2022-12-29T07:59:27;2.53;;;1.33;;
17806;SDS011;9027;48.938;9.182;2022-12-29T08:01:00;2.15;;;1.50;;
17806;SDS011;9027;48.938;9.182;2022-12-29T08:02:32;2.55;;;1.33;;
17806;SDS011;9027;48.938;9.182;2022-12-29T08:04:04;1.30;;;1.20;;
17806;SDS011;9027;48.938;9.182;2022-12-29T08:05:36;2.63;;;1.20;;
17806;SDS011;9027;48.938;9.182;2022-12-29T08:07:07;1.52;;;1.27;;
17806;SDS011;9027;48.938;9.182;2022-12-29T08:08:39;1.30;;;0.90;;
17806;SDS011;9027;48.938;9.182;2022-12-29T08:10:11;1.63;;;1.38;;
17806;SDS011;9027;48.938;9.182;2022-12-29T08:11:44;2.67;;;1.35;;
17806;SDS011;9027;48.938;9.182;2022-12-29T08:13:16;2.20;;;1.20;;
17806;SDS011;9027;48.938;9.182;2022-12-29T08:14:48;3.13;;;1.35;;
17806;SDS011;9027;48.938;9.182;2022-12-29T08:16:21;1.40;;;1.23;;
17806;SDS011;9027;48.938;9.182;2022-12-29T08:17:53;2.22;;;1.25;;
17806;SDS011;9027;48.938;9.182;2022-12-29T08:19:25;4.75;;;1.27;;
17806;SDS011;9027;48.938;9.182;2022-12-29T08:21:00;2.28;;;1.20;;
17806;SDS011;9027;48.938;9.182;2022-12-29T08:22:33;2.05;;;1.15;;
17806;SDS011;9027;48.938;9.182;2022-12-29T08:24:05;2.25;;;1.20;;
17806;SDS011;9027;48.938;9.182;2022-12-29T08:25:37;2.70;;;1.55;;
17806;SDS011;9027;48.938;9.182;2022-12-29T08:27:09;3.70;;;1.70;;
17806;SDS011;9027;48.938;9.182;2022-12-29T08:28:41;2.65;;;1.50;;
17806;SDS011;9027;48.938;9.182;2022-12-29T08:30:13;4.47;;;1.38;;
17806;SDS011;9027;48.938;9.182;2022-12-29T08:31:46;1.20;;;1.10;;
17806;SDS011;9027;48.938;9.182;2022-12-29T08:33:18;2.38;;;1.45;;
17806;SDS011;9027;48.938;9.182;2022-12-29T08:34:50;3.83;;;1.38;;
17806;SDS011;9027;48.938;9.182;2022-12-29T08:36:22;1.52;;;1.40;;
17806;SDS011;9027;48.938;9.182;2022-12-29T08:37:54;1.80;;;1.10;;
17806;SDS011;9027;48.938;9.182;2022-12-29T08:39:26;1.50;;;1.10;;
17806;SDS011;9027;48.938;9.182;2022-12-29T08:40:58;2.58;;;1.15;;
17806;SDS011;9027;48.938;9.182;2022-12-29T08:42:31;1.48;;;1.20;;
17806;SDS011;9027;48.938;9.182;2022-12-29T08:44:03;3.20;;;1.00;;
17806;SDS011;9027;48.938;9.182;2022-12-29T08:45:36;2.10;;;1.30;;
17806;SDS011;9027;48.938;9.182;2022-12-29T08:47:09;1.83;;;1.00;;
17806;SDS011;9027;48.938;9.182;2022-12-29T08:48:42;3.45;;;1.20;;
17806;SDS011;9027;48.938;9.182;2022-12-29T08:50:14;3.40;;;1.25;;
17806;SDS011;9027;48.938;9.182;2022-12-29T08:51:45;3.35;;;1.17;;
17806;SDS011;9027;48.938;9.182;2022-12-29T08:53:18;3.00;;;1.23;;
17806;SDS011;9027;48.938;9.182;2022-12-29T08:54:50;2.30;;;1.33;;
17806;SDS011;9027;48.938;9.182;2022-12-29T08:56:22;2.63;;;1.33;;
17806;SDS011;9027;48.938;9.182;2022-12-29T08:57:57;1.73;;;1.10;;
17806;SDS011;9027;48.938;9.182;2022-12-29T08:59:29;2.28;;;1.42;;
17806;SDS011;9027;48.938;9.182;2022-12-29T09:01:01;3.20;;;1.33;;
17806;SDS011;9027;48.938;9.182;2022-12-29T09:02:34;2.75;;;1.30;;
17806;SDS011;9027;48.938;9.182;2022-12-29T09:04:07;3.00;;;1.30;;
17806;SDS011;9027;48.938;9.182;2022-12-29T09:05:39;2.03;;;1.45;;
17806;SDS011;9027;48.938;9.182;2022-12-29T09:07:11;2.50;;;1.50;;
17806;SDS011;9027;48.938;9.182;2022-12-29T09:08:43;3.53;;;1.80;;
17806;SDS011;9027;48.938;9.182;2022-12-29T09:10:15;2.05;;;1.52;;
17806;SDS011;9027;48.938;9.182;2022-12-29T09:11:47;2.65;;;1.50;;
17806;SDS011;9027;48.938;9.182;2022-12-29T09:13:19;2.63;;;1.48;;
17806;SDS011;9027;48.938;9.182;2022-12-29T09:14:51;3.25;;;1.38;;
17806;SDS011;9027;48.938;9.182;2022-12-29T09:16:23;3.30;;;1.58;;
17806;SDS011;9027;48.938;9.182;2022-12-29T09:17:56;1.65;;;1.00;;
17806;SDS011;9027;48.938;9.182;2022-12-29T09:19:27;3.47;;;1.42;;
17806;SDS011;9027;48.938;9.182;2022-12-29T09:21:00;3.10;;;1.40;;
17806;SDS011;9027;48.938;9.182;2022-12-29T09:22:33;2.22;;;1.27;;
17806;SDS011;9027;48.938;9.182;2022-12-29T09:24:05;3.05;;;1.40;;
17806;SDS011;9027;48.938;9.182;2022-12-29T09:25:37;2.47;;;1.20;;
17806;SDS011;9027;48.938;9.182;2022-12-29T09:27:09;3.42;;;1.67;;
17806;SDS011;9027;48.938;9.182;2022-12-29T09:28:41;2.15;;;1.20;;
17806;SDS011;9027;48.938;9.182;2022-12-29T09:30:14;3.92;;;1.25;;
17806;SDS011;9027;48.938;9.182;2022-12-29T09:31:46;1.35;;;1.25;;
17806;SDS011;9027;48.938;9.182;2022-12-29T09:33:19;3.90;;;1.20;;
17806;SDS011;9027;48.938;9.182;2022-12-29T09:34:51;3.90;;;1.08;;
17806;SDS011;9027;48.938;9.182;2022-12-29T09:36:23;2.47;;;1.20;;
17806;SDS011;9027;48.938;9.182;2022-12-29T09:37:55;4.47;;;1.15;;
17806;SDS011;9027;48.938;9.182;2022-12-29T09:39:27;3.00;;;1.17;;
17806;SDS011;9027;48.938;9.182;2022-12-29T09:41:00;2.85;;;1.40;;
17806;SDS011;9027;48.938;9.182;2022-12-29T09:42:37;2.20;;;1.50;;
17806;SDS011;9027;48.938;9.182;2022-12-29T09:44:15;2.55;;;1.20;;
17806;SDS011;9027;48.938;9.182;2022-12-29T09:45:52;2.53;;;1.20;;